^^
B2 Weather Station Historical Data
Daily Summary for November 26, 2018 Units:  English    Metric   Both
Daily Weekly Monthly Yearly Custom
  High: Low: Average:
Temperature: 37.9 °F 24.7 °F 28.7 °F
Dew Point: 36.3 °F 19.1 °F 25.4 °F
Humidity: 95% 79% 88%
Wind Speed: 34.5mph 3.5mph 17.1mph
Wind Gust: 25.8mph - -
Wind- - WNW
Pressure: 30.02 in 29.43 in -
Precipitation: 0.10 in    
Historical Graphs
 
 
Tabular Data for November 26, 2018
Time Temperature Dew Point Pressure Wind Wind Speed Wind Gust Humidity Rainfall Rate (Hourly) solar
00:04 37.9 °F 36.3 °F 29.43 in NNE 28.0 mph 23.3 mph 94% 0.08 in 0.00 W/m2
00:09 37.8 °F 36.2 °F 29.44 in NNE 24.2 mph 21.5 mph 94% 0.08 in 0.00 W/m2
00:14 37.7 °F 36.1 °F 29.44 in NNE 31.0 mph 20.3 mph 94% 0.08 in 0.00 W/m2
00:19 37.7 °F 36.1 °F 29.44 in North 27.6 mph 20.8 mph 94% 0.08 in 0.00 W/m2
00:24 37.5 °F 35.9 °F 29.44 in North 21.9 mph 20.1 mph 94% 0.07 in 0.00 W/m2
00:29 37.2 °F 35.6 °F 29.44 in North 31.1 mph 20.2 mph 94% 0.07 in 0.00 W/m2
00:34 36.7 °F 35.1 °F 29.44 in North 26.5 mph 18.8 mph 94% 0.08 in 0.00 W/m2
00:39 36.0 °F 34.4 °F 29.44 in North 28.8 mph 19.7 mph 94% 0.07 in 0.00 W/m2
00:44 35.3 °F 33.7 °F 29.45 in NNE 28.8 mph 20.6 mph 94% 0.07 in 0.00 W/m2
00:49 34.5 °F 33.0 °F 29.45 in NNE 28.8 mph 21.0 mph 94% 0.06 in 0.00 W/m2
00:54 34.0 °F 32.5 °F 29.45 in NE 27.6 mph 18.7 mph 94% 0.06 in 0.00 W/m2
00:59 33.7 °F 32.2 °F 29.45 in NNW 31.1 mph 22.2 mph 94% 0.06 in 0.00 W/m2
01:04 33.4 °F 31.9 °F 29.45 in North 27.6 mph 23.3 mph 94% 0.05 in 0.00 W/m2
01:09 33.3 °F 31.8 °F 29.46 in North 27.6 mph 22.3 mph 94% 0.06 in 0.00 W/m2
01:14 33.2 °F 31.7 °F 29.46 in NNW 28.8 mph 25.8 mph 94% 0.05 in 0.00 W/m2
01:19 33.1 °F 31.6 °F 29.46 in North 27.6 mph 24.5 mph 94% 0.05 in 0.00 W/m2
01:24 33.1 °F 31.6 °F 29.47 in NNE 34.5 mph 21.8 mph 94% 0.05 in 0.00 W/m2
01:29 33.1 °F 31.6 °F 29.47 in North 34.5 mph 22.4 mph 94% 0.05 in 0.00 W/m2
01:34 33.1 °F 31.6 °F 29.48 in North 28.8 mph 22.0 mph 94% 0.04 in 0.00 W/m2
01:39 33.0 °F 31.5 °F 29.48 in North 31.1 mph 23.7 mph 94% 0.04 in 0.00 W/m2
01:44 33.0 °F 31.5 °F 29.49 in NNE 26.5 mph 21.0 mph 94% 0.04 in 0.00 W/m2
01:49 32.9 °F 31.6 °F 29.49 in North 31.1 mph 19.6 mph 95% 0.04 in 0.00 W/m2
01:54 32.9 °F 31.6 °F 29.49 in NNW 32.2 mph 22.1 mph 95% 0.03 in 0.00 W/m2
01:59 32.9 °F 31.6 °F 29.49 in NNE 28.8 mph 21.8 mph 95% 0.03 in 0.00 W/m2
02:04 32.9 °F 31.6 °F 29.50 in NNE 30.0 mph 24.1 mph 95% 0.04 in 0.00 W/m2
02:09 32.9 °F 31.6 °F 29.50 in North 26.5 mph 22.1 mph 95% 0.03 in 0.00 W/m2
02:14 32.9 °F 31.6 °F 29.50 in North 29.9 mph 21.8 mph 95% 0.03 in 0.00 W/m2
02:19 33.0 °F 31.7 °F 29.50 in NNE 34.5 mph 21.3 mph 95% 0.03 in 0.00 W/m2
02:24 33.0 °F 31.7 °F 29.50 in North 33.4 mph 22.3 mph 95% 0.04 in 0.00 W/m2
02:29 33.1 °F 31.8 °F 29.50 in North 29.9 mph 24.2 mph 95% 0.03 in 0.00 W/m2
02:34 33.2 °F 31.7 °F 29.51 in NNE 31.1 mph 23.8 mph 94% 0.03 in 0.00 W/m2
02:39 33.2 °F 31.7 °F 29.51 in North 29.0 mph 22.6 mph 94% 0.03 in 0.00 W/m2
02:44 33.2 °F 31.7 °F 29.52 in North 29.9 mph 20.8 mph 94% 0.02 in 0.00 W/m2
02:49 33.2 °F 31.7 °F 29.52 in North 28.8 mph 18.5 mph 94% 0.02 in 0.00 W/m2
02:54 33.2 °F 31.7 °F 29.52 in North 26.5 mph 20.8 mph 94% 0.02 in 0.00 W/m2
02:59 33.2 °F 31.9 °F 29.52 in North 26.5 mph 20.8 mph 95% 0.02 in 0.00 W/m2
03:04 33.2 °F 31.9 °F 29.53 in North 25.3 mph 21.8 mph 95% 0.01 in 0.00 W/m2
03:09 33.1 °F 31.8 °F 29.54 in North 29.9 mph 21.4 mph 95% 0.01 in 0.00 W/m2
03:14 33.2 °F 31.9 °F 29.54 in NNE 25.3 mph 23.0 mph 95% 0.01 in 0.00 W/m2
03:19 33.2 °F 31.7 °F 29.55 in North 31.1 mph 21.5 mph 94% 0.01 in 0.00 W/m2
03:24 33.1 °F 31.8 °F 29.55 in NNE 29.9 mph 21.6 mph 95% 0.00 in 0.00 W/m2
03:29 33.1 °F 31.8 °F 29.55 in North 29.9 mph 20.8 mph 95% 0.00 in 0.00 W/m2
03:34 33.1 °F 31.8 °F 29.56 in North 34.5 mph 24.9 mph 95% 0.00 in 0.00 W/m2
03:39 33.1 °F 31.6 °F 29.56 in North 29.9 mph 22.0 mph 94% 0.00 in 0.00 W/m2
03:44 33.1 °F 31.6 °F 29.56 in North 26.5 mph 16.9 mph 94% 0.00 in 0.00 W/m2
03:49 33.1 °F 31.6 °F 29.57 in NW 28.8 mph 22.9 mph 94% 0.00 in 0.00 W/m2
03:54 33.1 °F 31.6 °F 29.58 in North 27.6 mph 18.1 mph 94% 0.00 in 0.00 W/m2
03:59 33.1 °F 31.6 °F 29.58 in NNW 20.0 mph 20.0 mph 94% 0.00 in 0.00 W/m2
04:04 33.1 °F 31.6 °F 29.59 in NNW 28.8 mph 19.6 mph 94% 0.00 in 0.00 W/m2
04:09 33.0 °F 31.5 °F 29.59 in NNW 25.3 mph 14.6 mph 94% 0.00 in 0.00 W/m2
04:14 33.1 °F 31.6 °F 29.60 in North 25.3 mph 15.1 mph 94% 0.00 in 0.00 W/m2
04:19 33.0 °F 31.5 °F 29.61 in NW 23.0 mph 17.9 mph 94% 0.00 in 0.00 W/m2
04:24 33.0 °F 31.5 °F 29.61 in North 21.9 mph 18.1 mph 94% 0.00 in 0.00 W/m2
04:29 32.9 °F 31.4 °F 29.62 in NNW 23.0 mph 17.1 mph 94% 0.00 in 0.00 W/m2
04:34 32.9 °F 31.4 °F 29.62 in North 25.0 mph 19.1 mph 94% 0.00 in 0.00 W/m2
04:39 32.9 °F 31.4 °F 29.63 in North 20.7 mph 17.4 mph 94% 0.00 in 0.00 W/m2
04:44 32.9 °F 31.4 °F 29.63 in NNW 26.5 mph 18.1 mph 94% 0.00 in 0.00 W/m2
04:49 32.9 °F 31.4 °F 29.64 in NNW 26.5 mph 21.7 mph 94% 0.00 in 0.00 W/m2
04:54 32.9 °F 31.4 °F 29.65 in North 26.5 mph 18.9 mph 94% 0.00 in 0.00 W/m2
04:59 32.9 °F 31.4 °F 29.65 in NNW 20.0 mph 16.1 mph 94% 0.00 in 0.00 W/m2
05:04 32.9 °F 31.4 °F 29.65 in NNW 19.6 mph 14.4 mph 94% 0.00 in 0.00 W/m2
05:09 32.8 °F 31.3 °F 29.66 in NNW 21.9 mph 13.0 mph 94% 0.00 in 0.00 W/m2
05:14 32.8 °F 31.3 °F 29.66 in NNW 24.2 mph 16.8 mph 94% 0.00 in 0.00 W/m2
05:19 32.7 °F 31.2 °F 29.67 in NW 21.9 mph 15.0 mph 94% 0.00 in 0.00 W/m2
05:24 32.6 °F 31.1 °F 29.67 in NNW 24.2 mph 16.7 mph 94% 0.00 in 0.00 W/m2
05:29 32.6 °F 31.1 °F 29.68 in NNW 25.3 mph 20.3 mph 94% 0.00 in 0.00 W/m2
05:34 32.5 °F 31.0 °F 29.68 in NNW 21.0 mph 15.9 mph 94% 0.00 in 0.00 W/m2
05:39 32.4 °F 30.9 °F 29.69 in NW 24.2 mph 15.1 mph 94% 0.00 in 0.00 W/m2
05:44 32.0 °F 30.5 °F 29.69 in NW 23.0 mph 17.5 mph 94% 0.00 in 0.00 W/m2
05:49 31.4 °F 29.9 °F 29.69 in NNW 19.6 mph 15.2 mph 94% 0.00 in 0.00 W/m2
05:54 30.8 °F 29.3 °F 29.69 in North 21.9 mph 13.6 mph 94% 0.00 in 0.00 W/m2
05:59 30.5 °F 29.0 °F 29.70 in NW 21.9 mph 17.1 mph 94% 0.00 in 0.00 W/m2
06:04 30.2 °F 28.7 °F 29.70 in NNW 26.0 mph 17.1 mph 94% 0.00 in 0.00 W/m2
06:09 29.9 °F 28.4 °F 29.71 in NNW 21.9 mph 17.7 mph 94% 0.00 in 0.00 W/m2
06:14 29.9 °F 28.4 °F 29.71 in NNW 19.6 mph 13.3 mph 94% 0.00 in 0.00 W/m2
06:19 29.7 °F 28.2 °F 29.71 in NNW 24.2 mph 12.6 mph 94% 0.00 in 0.00 W/m2
06:24 29.6 °F 28.1 °F 29.72 in NNW 20.7 mph 12.9 mph 94% 0.00 in 0.00 W/m2
06:29 29.5 °F 28.0 °F 29.73 in NW 21.9 mph 15.7 mph 94% 0.00 in 0.00 W/m2
06:34 29.5 °F 28.0 °F 29.73 in NNW 19.6 mph 14.1 mph 94% 0.00 in 0.00 W/m2
06:39 29.4 °F 27.9 °F 29.73 in North 25.3 mph 14.0 mph 94% 0.00 in 0.00 W/m2
06:44 29.4 °F 27.9 °F 29.74 in NNW 19.6 mph 14.0 mph 94% 0.00 in 0.00 W/m2
06:49 29.4 °F 27.9 °F 29.74 in NNW 18.4 mph 15.2 mph 94% 0.00 in 0.00 W/m2
06:54 29.4 °F 27.9 °F 29.74 in NNW 20.0 mph 10.8 mph 94% 0.00 in 0.00 W/m2
06:59 29.4 °F 27.9 °F 29.75 in NW 21.9 mph 15.3 mph 94% 0.00 in 5.00 W/m2
07:04 29.4 °F 27.9 °F 29.75 in North 17.3 mph 11.8 mph 94% 0.00 in 7.00 W/m2
07:09 29.4 °F 27.9 °F 29.75 in NW 24.2 mph 14.9 mph 94% 0.00 in 9.00 W/m2
07:14 29.3 °F 27.5 °F 29.76 in NNW 25.3 mph 14.9 mph 93% 0.00 in 11.00 W/m2
07:19 29.3 °F 27.5 °F 29.76 in NNW 19.6 mph 12.0 mph 93% 0.00 in 12.00 W/m2
07:24 29.3 °F 27.5 °F 29.76 in NW 16.0 mph 10.7 mph 93% 0.00 in 14.00 W/m2
07:29 29.2 °F 27.4 °F 29.77 in NW 17.3 mph 9.8 mph 93% 0.00 in 14.00 W/m2
07:34 29.0 °F 27.2 °F 29.77 in NNW 17.3 mph 12.1 mph 93% 0.00 in 19.00 W/m2
07:39 28.9 °F 27.1 °F 29.77 in NW 23.0 mph 12.7 mph 93% 0.00 in 25.00 W/m2
07:44 28.8 °F 27.0 °F 29.78 in North 15.0 mph 9.8 mph 93% 0.00 in 28.00 W/m2
07:49 28.6 °F 26.8 °F 29.78 in NNW 19.6 mph 12.8 mph 93% 0.00 in 35.00 W/m2
07:54 28.5 °F 26.7 °F 29.78 in NNW 17.3 mph 11.4 mph 93% 0.00 in 35.00 W/m2
07:59 28.4 °F 26.6 °F 29.78 in NW 17.3 mph 12.3 mph 93% 0.00 in 40.00 W/m2
08:04 28.4 °F 26.6 °F 29.79 in NNW 20.0 mph 12.6 mph 93% 0.00 in 47.00 W/m2
08:09 28.3 °F 26.8 °F 29.79 in NW 16.1 mph 11.9 mph 94% 0.00 in 53.00 W/m2
08:14 28.4 °F 26.9 °F 29.79 in NW 12.7 mph 10.9 mph 94% 0.00 in 54.00 W/m2
08:19 28.2 °F 26.4 °F 29.80 in NW 17.3 mph 9.5 mph 93% 0.00 in 62.00 W/m2
08:24 28.1 °F 26.3 °F 29.80 in North 19.6 mph 11.5 mph 93% 0.00 in 63.00 W/m2
08:29 28.1 °F 26.3 °F 29.80 in NNW 19.6 mph 8.9 mph 93% 0.00 in 65.00 W/m2
08:34 28.1 °F 26.3 °F 29.81 in NNW 17.3 mph 11.8 mph 93% 0.00 in 67.00 W/m2
08:39 28.0 °F 26.2 °F 29.81 in NW 19.6 mph 9.5 mph 93% 0.00 in 72.00 W/m2
08:44 28.0 °F 26.5 °F 29.82 in NNW 18.4 mph 11.5 mph 94% 0.00 in 84.00 W/m2
08:49 27.9 °F 26.4 °F 29.82 in West 15.0 mph 8.4 mph 94% 0.00 in 86.00 W/m2
08:54 27.8 °F 26.3 °F 29.82 in NW 18.0 mph 11.5 mph 94% 0.00 in 95.00 W/m2
08:59 27.5 °F 25.7 °F 29.82 in NW 20.7 mph 12.5 mph 93% 0.00 in 116.00 W/m2
09:04 27.5 °F 25.7 °F 29.83 in NW 16.1 mph 10.5 mph 93% 0.00 in 111.00 W/m2
09:09 27.4 °F 25.6 °F 29.83 in NW 18.4 mph 10.7 mph 93% 0.00 in 107.00 W/m2
09:14 27.4 °F 25.6 °F 29.83 in NNW 18.4 mph 9.1 mph 93% 0.00 in 100.00 W/m2
09:19 27.3 °F 25.8 °F 29.84 in WNW 19.6 mph 13.9 mph 94% 0.00 in 95.00 W/m2
09:24 27.2 °F 25.4 °F 29.84 in NW 19.6 mph 10.1 mph 93% 0.00 in 90.00 W/m2
09:29 27.2 °F 25.4 °F 29.84 in NW 19.6 mph 12.0 mph 93% 0.00 in 93.00 W/m2
09:34 27.2 °F 25.4 °F 29.84 in WNW 19.6 mph 11.4 mph 93% 0.00 in 100.00 W/m2
09:39 27.2 °F 25.4 °F 29.84 in WNW 17.3 mph 11.7 mph 93% 0.00 in 105.00 W/m2
09:44 27.2 °F 25.4 °F 29.85 in NW 18.4 mph 10.7 mph 93% 0.00 in 105.00 W/m2
09:49 27.4 °F 25.6 °F 29.85 in NNW 16.1 mph 11.2 mph 93% 0.00 in 113.00 W/m2
09:54 27.5 °F 25.7 °F 29.86 in North 18.0 mph 10.0 mph 93% 0.00 in 123.00 W/m2
09:59 27.5 °F 25.7 °F 29.86 in NW 20.7 mph 11.3 mph 93% 0.00 in 120.00 W/m2
10:04 27.5 °F 25.5 °F 29.86 in NW 16.1 mph 11.5 mph 92% 0.00 in 121.00 W/m2
10:09 27.5 °F 25.5 °F 29.86 in WNW 16.1 mph 10.6 mph 92% 0.00 in 118.00 W/m2
10:14 27.6 °F 25.6 °F 29.87 in North 19.6 mph 10.4 mph 92% 0.00 in 132.00 W/m2
10:19 27.6 °F 25.6 °F 29.87 in NW 17.3 mph 11.2 mph 92% 0.00 in 116.00 W/m2
10:24 27.6 °F 25.6 °F 29.87 in NNW 16.1 mph 12.2 mph 92% 0.00 in 123.00 W/m2
10:29 27.6 °F 25.3 °F 29.87 in NNW 15.0 mph 10.3 mph 91% 0.00 in 116.00 W/m2
10:34 27.7 °F 25.4 °F 29.88 in NW 19.6 mph 9.8 mph 91% 0.00 in 125.00 W/m2
10:39 27.7 °F 25.4 °F 29.88 in NW 18.4 mph 11.9 mph 91% 0.00 in 118.00 W/m2
10:44 27.6 °F 25.1 °F 29.88 in NW 18.4 mph 10.8 mph 90% 0.00 in 111.00 W/m2
10:49 27.8 °F 25.2 °F 29.88 in WNW 12.7 mph 10.3 mph 90% 0.00 in 116.00 W/m2
10:54 27.7 °F 25.2 °F 29.89 in WNW 20.7 mph 10.9 mph 90% 0.00 in 118.00 W/m2
10:59 27.8 °F 25.0 °F 29.89 in North 18.4 mph 10.9 mph 89% 0.00 in 116.00 W/m2
11:04 27.9 °F 25.1 °F 29.89 in WNW 18.4 mph 11.1 mph 89% 0.00 in 127.00 W/m2
11:09 27.8 °F 25.0 °F 29.89 in NW 17.3 mph 10.6 mph 89% 0.00 in 111.00 W/m2
11:14 27.9 °F 25.1 °F 29.89 in NNW 15.0 mph 7.8 mph 89% 0.00 in 118.00 W/m2
11:19 27.9 °F 25.1 °F 29.89 in NNW 13.8 mph 12.5 mph 89% 0.00 in 137.00 W/m2
11:24 28.0 °F 24.9 °F 29.90 in WNW 17.3 mph 9.4 mph 88% 0.00 in 125.00 W/m2
11:29 28.0 °F 24.9 °F 29.90 in NW 19.6 mph 11.1 mph 88% 0.00 in 113.00 W/m2
11:34 27.9 °F 24.8 °F 29.90 in WNW 17.0 mph 10.0 mph 88% 0.00 in 107.00 W/m2
11:39 27.8 °F 24.7 °F 29.90 in NW 16.1 mph 10.9 mph 88% 0.00 in 104.00 W/m2
11:44 27.7 °F 24.6 °F 29.91 in NW 17.3 mph 11.1 mph 88% 0.00 in 118.00 W/m2
11:49 27.8 °F 24.7 °F 29.90 in NW 17.3 mph 11.8 mph 88% 0.00 in 128.00 W/m2
11:54 27.7 °F 24.3 °F 29.90 in NW 18.4 mph 12.1 mph 87% 0.00 in 125.00 W/m2
11:59 27.6 °F 24.2 °F 29.91 in WNW 17.3 mph 11.6 mph 87% 0.00 in 109.00 W/m2
12:04 27.6 °F 24.2 °F 29.91 in NW 20.7 mph 10.7 mph 87% 0.00 in 104.00 W/m2
12:09 27.6 °F 24.0 °F 29.91 in NNW 19.6 mph 12.4 mph 86% 0.00 in 91.00 W/m2
12:14 27.5 °F 23.9 °F 29.92 in West 17.3 mph 12.1 mph 86% 0.00 in 95.00 W/m2
12:19 27.6 °F 24.0 °F 29.92 in NW 12.7 mph 9.9 mph 86% 0.00 in 105.00 W/m2
12:24 27.7 °F 24.1 °F 29.92 in NW 13.8 mph 7.7 mph 86% 0.00 in 121.00 W/m2
12:29 27.7 °F 24.1 °F 29.92 in NW 23.0 mph 12.0 mph 86% 0.00 in 118.00 W/m2
12:30 27.7 °F 24.1 °F 29.92 in WNW 18.4 mph 10.6 mph 86% 0.00 in 121.00 W/m2
12:32 27.7 °F 24.1 °F 29.93 in NNW 18.4 mph 11.1 mph 86% 0.00 in 120.00 W/m2
12:39 27.6 °F 24.0 °F 29.93 in NNW 16.1 mph 9.7 mph 86% 0.00 in 132.00 W/m2
12:44 27.6 °F 24.0 °F 29.93 in NNW 15.0 mph 13.9 mph 86% 0.00 in 127.00 W/m2
12:49 27.6 °F 23.7 °F 29.93 in WNW 18.4 mph 13.9 mph 85% 0.00 in 113.00 W/m2
12:54 27.5 °F 23.3 °F 29.94 in NW 12.7 mph 8.0 mph 84% 0.00 in 95.00 W/m2
12:59 27.6 °F 23.7 °F 29.94 in NW 15.0 mph 12.0 mph 85% 0.00 in 105.00 W/m2
13:04 27.5 °F 23.3 °F 29.94 in NW 17.0 mph 10.4 mph 84% 0.00 in 91.00 W/m2
13:09 27.5 °F 23.3 °F 29.94 in WNW 11.5 mph 7.0 mph 84% 0.00 in 84.00 W/m2
13:14 27.5 °F 23.3 °F 29.94 in NW 12.0 mph 8.4 mph 84% 0.00 in 93.00 W/m2
13:19 27.5 °F 23.3 °F 29.94 in NW 16.1 mph 11.3 mph 84% 0.00 in 114.00 W/m2
13:24 27.5 °F 23.3 °F 29.95 in WNW 16.1 mph 8.7 mph 84% 0.00 in 121.00 W/m2
13:29 27.6 °F 23.4 °F 29.95 in NNW 17.0 mph 13.4 mph 84% 0.00 in 114.00 W/m2
13:34 27.5 °F 23.0 °F 29.95 in NW 19.6 mph 9.5 mph 83% 0.00 in 104.00 W/m2
13:39 27.5 °F 23.3 °F 29.95 in NW 19.6 mph 12.9 mph 84% 0.00 in 105.00 W/m2
13:44 27.5 °F 23.3 °F 29.95 in WNW 17.3 mph 10.3 mph 84% 0.00 in 97.00 W/m2
13:49 27.5 °F 23.3 °F 29.95 in NNW 17.3 mph 10.6 mph 84% 0.00 in 93.00 W/m2
13:54 27.5 °F 23.3 °F 29.95 in WNW 13.8 mph 10.6 mph 84% 0.00 in 86.00 W/m2
13:59 27.5 °F 23.3 °F 29.96 in NW 16.1 mph 9.8 mph 84% 0.00 in 77.00 W/m2
14:04 27.5 °F 23.0 °F 29.96 in NW 19.6 mph 12.2 mph 83% 0.00 in 81.00 W/m2
14:09 27.5 °F 23.0 °F 29.96 in NW 11.5 mph 9.8 mph 83% 0.00 in 76.00 W/m2
14:14 27.4 °F 22.9 °F 29.96 in NW 16.1 mph 10.1 mph 83% 0.00 in 69.00 W/m2
14:20 27.4 °F 22.9 °F 29.96 in WNW 13.8 mph 9.2 mph 83% 0.00 in 72.00 W/m2
14:24 27.4 °F 22.9 °F 29.96 in WNW 11.5 mph 8.8 mph 83% 0.00 in 72.00 W/m2
14:29 27.4 °F 22.9 °F 29.96 in NW 16.1 mph 9.3 mph 83% 0.00 in 67.00 W/m2
14:34 27.4 °F 23.2 °F 29.96 in NW 13.8 mph 7.5 mph 84% 0.00 in 67.00 W/m2
14:39 27.4 °F 22.9 °F 29.97 in NW 16.1 mph 10.2 mph 83% 0.00 in 69.00 W/m2
14:44 27.4 °F 22.9 °F 29.97 in WNW 12.7 mph 6.7 mph 83% 0.00 in 72.00 W/m2
14:49 27.4 °F 22.9 °F 29.97 in NW 11.5 mph 7.3 mph 83% 0.00 in 77.00 W/m2
14:54 27.4 °F 22.6 °F 29.97 in NW 11.5 mph 6.9 mph 82% 0.00 in 76.00 W/m2
14:59 27.4 °F 22.6 °F 29.97 in NW 12.7 mph 9.4 mph 82% 0.00 in 77.00 W/m2
15:04 27.3 °F 22.2 °F 29.97 in WNW 15.0 mph 9.8 mph 81% 0.00 in 81.00 W/m2
15:09 27.4 °F 22.6 °F 29.97 in WNW 11.5 mph 7.0 mph 82% 0.00 in 81.00 W/m2
15:14 27.3 °F 22.2 °F 29.98 in NNW 11.5 mph 6.6 mph 81% 0.00 in 72.00 W/m2
15:19 27.2 °F 22.1 °F 29.98 in NW 13.8 mph 7.7 mph 81% 0.00 in 54.00 W/m2
15:24 27.2 °F 22.1 °F 29.98 in NW 7.0 mph 5.1 mph 81% 0.00 in 46.00 W/m2
15:29 27.2 °F 22.1 °F 29.98 in WNW 15.0 mph 6.0 mph 81% 0.00 in 39.00 W/m2
15:34 27.2 °F 22.1 °F 29.98 in NW 11.5 mph 8.1 mph 81% 0.00 in 32.00 W/m2
15:39 27.1 °F 22.0 °F 29.99 in NW 13.8 mph 6.9 mph 81% 0.00 in 30.00 W/m2
15:44 27.1 °F 22.0 °F 29.99 in NW 8.1 mph 7.2 mph 81% 0.00 in 26.00 W/m2
15:49 27.1 °F 22.0 °F 29.99 in NNW 11.5 mph 6.5 mph 81% 0.00 in 23.00 W/m2
15:54 27.1 °F 22.3 °F 29.99 in NW 9.2 mph 6.1 mph 82% 0.00 in 19.00 W/m2
15:59 27.1 °F 22.0 °F 29.99 in WNW 11.5 mph 7.1 mph 81% 0.00 in 12.00 W/m2
16:04 27.1 °F 22.0 °F 29.99 in NW 10.0 mph 6.4 mph 81% 0.00 in 7.00 W/m2
16:09 27.1 °F 22.0 °F 29.99 in NW 12.0 mph 7.2 mph 81% 0.00 in 5.00 W/m2
16:14 27.1 °F 21.7 °F 29.99 in NW 12.7 mph 5.6 mph 80% 0.00 in 0.00 W/m2
16:19 27.1 °F 21.7 °F 30.00 in WNW 11.5 mph 7.6 mph 80% 0.00 in 0.00 W/m2
16:24 27.0 °F 21.7 °F 29.99 in West 11.5 mph 5.8 mph 80% 0.00 in 0.00 W/m2
16:29 27.0 °F 21.7 °F 30.00 in NNW 11.5 mph 6.0 mph 80% 0.00 in 0.00 W/m2
16:34 27.0 °F 21.7 °F 29.99 in West 14.0 mph 9.0 mph 80% 0.00 in 0.00 W/m2
16:39 26.9 °F 21.8 °F 30.00 in WNW 11.5 mph 6.4 mph 81% 0.00 in 0.00 W/m2
16:44 26.9 °F 21.8 °F 30.00 in NNW 11.5 mph 7.6 mph 81% 0.00 in 0.00 W/m2
16:46 26.8 °F 21.8 °F 30.00 in NNW 13.0 mph 7.3 mph 81% 0.00 in 0.00 W/m2
16:47 26.8 °F 21.8 °F 30.00 in NW 12.7 mph 7.2 mph 81% 0.00 in 0.00 W/m2
16:54 26.8 °F 21.8 °F 30.00 in WNW 9.2 mph 4.7 mph 81% 0.00 in 0.00 W/m2
16:59 26.7 °F 21.9 °F 30.00 in WNW 11.5 mph 6.8 mph 82% 0.00 in 0.00 W/m2
17:04 26.8 °F 22.0 °F 30.00 in NW 6.9 mph 3.8 mph 82% 0.00 in 0.00 W/m2
17:09 26.7 °F 21.9 °F 30.00 in NW 10.4 mph 6.6 mph 82% 0.00 in 0.00 W/m2
17:14 26.7 °F 21.9 °F 30.00 in WNW 12.0 mph 5.7 mph 82% 0.00 in 0.00 W/m2
17:19 26.6 °F 21.6 °F 30.00 in NW 11.5 mph 7.0 mph 81% 0.00 in 0.00 W/m2
17:24 26.6 °F 21.6 °F 30.00 in NW 11.0 mph 5.7 mph 81% 0.00 in 0.00 W/m2
17:29 26.5 °F 21.2 °F 30.00 in WNW 12.7 mph 6.2 mph 80% 0.00 in 0.00 W/m2
17:34 26.6 °F 21.6 °F 30.00 in NW 6.9 mph 6.7 mph 81% 0.00 in 0.00 W/m2
17:39 26.6 °F 21.6 °F 30.00 in NW 10.0 mph 5.2 mph 81% 0.00 in 0.00 W/m2
17:44 26.6 °F 21.3 °F 30.01 in WNW 12.7 mph 5.9 mph 80% 0.00 in 0.00 W/m2
17:49 26.6 °F 21.3 °F 30.01 in West 15.0 mph 7.5 mph 80% 0.00 in 0.00 W/m2
17:54 26.6 °F 21.3 °F 30.01 in WNW 15.0 mph 6.7 mph 80% 0.00 in 0.00 W/m2
17:59 26.6 °F 21.6 °F 30.01 in WNW 13.8 mph 7.8 mph 81% 0.00 in 0.00 W/m2
18:04 26.6 °F 21.6 °F 30.01 in WNW 12.7 mph 5.5 mph 81% 0.00 in 0.00 W/m2
18:09 26.6 °F 21.6 °F 30.01 in WNW 15.0 mph 7.2 mph 81% 0.00 in 0.00 W/m2
18:14 26.5 °F 21.5 °F 30.01 in NNW 11.5 mph 7.5 mph 81% 0.00 in 0.00 W/m2
18:19 26.6 °F 21.6 °F 30.01 in NW 11.5 mph 4.4 mph 81% 0.00 in 0.00 W/m2
18:24 26.6 °F 21.6 °F 30.01 in WNW 10.4 mph 4.4 mph 81% 0.00 in 0.00 W/m2
18:29 26.6 °F 21.6 °F 30.01 in West 11.0 mph 7.8 mph 81% 0.00 in 0.00 W/m2
18:34 26.6 °F 21.6 °F 30.01 in WNW 11.0 mph 6.0 mph 81% 0.00 in 0.00 W/m2
18:39 26.5 °F 21.5 °F 30.01 in WNW 8.0 mph 5.3 mph 81% 0.00 in 0.00 W/m2
18:44 26.5 °F 21.5 °F 30.01 in West 10.4 mph 2.9 mph 81% 0.00 in 0.00 W/m2
18:49 26.6 °F 21.6 °F 30.02 in West 9.2 mph 4.3 mph 81% 0.00 in 0.00 W/m2
18:54 26.6 °F 21.6 °F 30.01 in NW 6.9 mph 3.0 mph 81% 0.00 in 0.00 W/m2
18:59 26.6 °F 21.8 °F 30.01 in West 3.5 mph 3.5 mph 82% 0.00 in 0.00 W/m2
19:04 26.6 °F 21.8 °F 30.01 in West 7.0 mph 4.6 mph 82% 0.00 in 0.00 W/m2
19:09 26.5 °F 22.0 °F 30.02 in WNW 8.1 mph 3.1 mph 83% 0.00 in 0.00 W/m2
19:14 26.5 °F 22.0 °F 30.02 in WNW 6.0 mph 5.1 mph 83% 0.00 in 0.00 W/m2
19:19 26.5 °F 22.0 °F 30.02 in WSW 4.6 mph 1.1 mph 83% 0.00 in 0.00 W/m2
19:24 26.5 °F 22.0 °F 30.01 in SW 8.1 mph 4.5 mph 83% 0.00 in 0.00 W/m2
19:29 26.5 °F 22.0 °F 30.01 in West 3.5 mph 3.1 mph 83% 0.00 in 0.00 W/m2
19:34 26.4 °F 22.2 °F 30.01 in WNW 6.0 mph 4.7 mph 84% 0.00 in 0.00 W/m2
19:39 26.3 °F 22.1 °F 30.01 in WSW 5.8 mph 2.2 mph 84% 0.00 in 0.00 W/m2
19:44 26.3 °F 22.4 °F 30.02 in West 5.8 mph 3.4 mph 85% 0.00 in 0.00 W/m2
19:49 26.4 °F 22.5 °F 30.01 in WNW 8.1 mph 3.1 mph 85% 0.00 in 0.00 W/m2
19:54 26.4 °F 22.2 °F 30.01 in West 9.2 mph 4.4 mph 84% 0.00 in 0.00 W/m2
19:59 26.4 °F 22.2 °F 30.01 in WNW 8.0 mph 3.7 mph 84% 0.00 in 0.00 W/m2
20:04 26.3 °F 21.8 °F 30.01 in SW 8.1 mph 3.4 mph 83% 0.00 in 0.00 W/m2
20:09 26.3 °F 21.8 °F 30.01 in West 11.5 mph 5.5 mph 83% 0.00 in 0.00 W/m2
20:14 26.3 °F 21.6 °F 30.01 in West 11.5 mph 4.9 mph 82% 0.00 in 0.00 W/m2
20:19 26.3 °F 21.6 °F 30.01 in NW 10.4 mph 4.4 mph 82% 0.00 in 0.00 W/m2
20:24 26.2 °F 21.5 °F 30.01 in WNW 12.7 mph 5.6 mph 82% 0.00 in 0.00 W/m2
20:29 26.2 °F 21.2 °F 30.02 in WSW 10.4 mph 3.2 mph 81% 0.00 in 0.00 W/m2
20:34 26.1 °F 21.1 °F 30.01 in WNW 11.5 mph 7.5 mph 81% 0.00 in 0.00 W/m2
20:39 26.1 °F 21.1 °F 30.02 in North 11.5 mph 6.7 mph 81% 0.00 in 0.00 W/m2
20:44 26.1 °F 21.1 °F 30.02 in NW 10.0 mph 5.7 mph 81% 0.00 in 0.00 W/m2
20:49 26.0 °F 21.0 °F 30.02 in WNW 11.5 mph 4.7 mph 81% 0.00 in 0.00 W/m2
20:54 26.0 °F 21.0 °F 30.02 in West 9.2 mph 4.7 mph 81% 0.00 in 0.00 W/m2
20:59 26.0 °F 21.0 °F 30.02 in North 10.4 mph 5.0 mph 81% 0.00 in 0.00 W/m2
21:04 26.0 °F 21.0 °F 30.02 in North 8.1 mph 3.9 mph 81% 0.00 in 0.00 W/m2
21:09 25.9 °F 20.9 °F 30.01 in West 8.1 mph 6.4 mph 81% 0.00 in 0.00 W/m2
21:14 25.8 °F 20.8 °F 30.02 in WNW 8.0 mph 6.3 mph 81% 0.00 in 0.00 W/m2
21:19 25.7 °F 20.7 °F 30.02 in WSW 10.4 mph 6.2 mph 81% 0.00 in 0.00 W/m2
21:24 25.6 °F 20.3 °F 30.02 in NW 11.5 mph 3.7 mph 80% 0.00 in 0.00 W/m2
21:29 25.5 °F 20.2 °F 30.02 in West 8.0 mph 7.3 mph 80% 0.00 in 0.00 W/m2
21:34 25.4 °F 20.1 °F 30.02 in WNW 10.4 mph 6.7 mph 80% 0.00 in 0.00 W/m2
21:39 25.4 °F 20.1 °F 30.02 in West 12.7 mph 7.0 mph 80% 0.00 in 0.00 W/m2
21:44 25.4 °F 20.1 °F 30.02 in West 10.4 mph 8.3 mph 80% 0.00 in 0.00 W/m2
21:49 25.3 °F 20.0 °F 30.02 in NW 9.2 mph 5.6 mph 80% 0.00 in 0.00 W/m2
21:54 25.3 °F 20.0 °F 30.02 in WNW 8.1 mph 3.8 mph 80% 0.00 in 0.00 W/m2
21:59 25.2 °F 19.9 °F 30.02 in WSW 10.4 mph 6.7 mph 80% 0.00 in 0.00 W/m2
22:04 25.2 °F 19.9 °F 30.02 in West 8.1 mph 6.2 mph 80% 0.00 in 0.00 W/m2
22:09 25.1 °F 19.8 °F 30.02 in WNW 12.7 mph 7.0 mph 80% 0.00 in 0.00 W/m2
22:14 25.1 °F 20.1 °F 30.02 in WNW 8.0 mph 3.5 mph 81% 0.00 in 0.00 W/m2
22:19 25.1 °F 20.1 °F 30.02 in SW 9.2 mph 6.4 mph 81% 0.00 in 0.00 W/m2
22:24 25.0 °F 19.7 °F 30.02 in WNW 13.8 mph 8.1 mph 80% 0.00 in 0.00 W/m2
22:29 25.0 °F 19.7 °F 30.02 in West 17.3 mph 5.1 mph 80% 0.00 in 0.00 W/m2
22:34 24.9 °F 19.6 °F 30.02 in WNW 8.1 mph 4.5 mph 80% 0.00 in 0.00 W/m2
22:39 24.9 °F 19.6 °F 30.02 in WNW 5.8 mph 4.4 mph 80% 0.00 in 0.00 W/m2
22:44 24.9 °F 19.6 °F 30.02 in NW 5.8 mph 5.6 mph 80% 0.00 in 0.00 W/m2
22:49 24.9 °F 19.6 °F 30.01 in WNW 9.2 mph 3.9 mph 80% 0.00 in 0.00 W/m2
22:54 24.9 °F 19.6 °F 30.01 in West 8.0 mph 4.1 mph 80% 0.00 in 0.00 W/m2
22:59 24.8 °F 19.5 °F 30.01 in NNW 11.5 mph 4.9 mph 80% 0.00 in 0.00 W/m2
23:04 24.9 °F 19.6 °F 30.01 in WSW 6.9 mph 4.3 mph 80% 0.00 in 0.00 W/m2
23:09 24.8 °F 19.5 °F 30.01 in NW 6.9 mph 4.6 mph 80% 0.00 in 0.00 W/m2
23:14 24.8 °F 19.5 °F 30.01 in WNW 11.5 mph 7.3 mph 80% 0.00 in 0.00 W/m2
23:19 24.7 °F 19.1 °F 30.01 in NW 11.5 mph 5.1 mph 79% 0.00 in 0.00 W/m2
23:24 24.7 °F 19.1 °F 30.01 in WNW 8.1 mph 4.9 mph 79% 0.00 in 0.00 W/m2
23:29 24.8 °F 19.5 °F 30.01 in WNW 5.0 mph 4.7 mph 80% 0.00 in 0.00 W/m2
23:34 24.8 °F 19.5 °F 30.01 in North 5.8 mph 4.4 mph 80% 0.00 in 0.00 W/m2
23:39 24.8 °F 19.2 °F 30.01 in NW 10.4 mph 3.4 mph 79% 0.00 in 0.00 W/m2
23:44 24.8 °F 19.5 °F 30.01 in WNW 4.6 mph 2.4 mph 80% 0.00 in 0.00 W/m2
23:49 24.8 °F 19.5 °F 30.01 in NW 10.4 mph 6.7 mph 80% 0.00 in 0.00 W/m2
23:54 24.7 °F 19.1 °F 30.01 in NW 8.1 mph 5.6 mph 79% 0.00 in 0.00 W/m2
23:59 24.7 °F 19.1 °F 30.01 in WNW 8.1 mph 4.4 mph 79% 0.00 in 0.00 W/m2
Bourbonnais, Illinois, USA
Compliments of Weather Underground - 2 mb